sensor_id;sensor_type;location;lat;lon;timestamp;P1;durP1;ratioP1;P2;durP2;ratioP2
66384;SDS011;53426;55.872;37.462;2023-02-11T00:01:53;16.75;;;8.10;;
66384;SDS011;53426;55.872;37.462;2023-02-11T00:04:25;14.30;;;8.75;;
66384;SDS011;53426;55.872;37.462;2023-02-11T00:06:54;12.90;;;7.55;;
66384;SDS011;53426;55.872;37.462;2023-02-11T00:09:28;17.65;;;8.70;;
66384;SDS011;53426;55.872;37.462;2023-02-11T00:12:00;18.95;;;9.00;;
66384;SDS011;53426;55.872;37.462;2023-02-11T00:14:33;17.40;;;7.70;;
66384;SDS011;53426;55.872;37.462;2023-02-11T00:17:05;17.50;;;8.88;;
66384;SDS011;53426;55.872;37.462;2023-02-11T00:19:38;20.02;;;9.82;;
66384;SDS011;53426;55.872;37.462;2023-02-11T00:22:10;16.92;;;7.72;;
66384;SDS011;53426;55.872;37.462;2023-02-11T00:24:43;16.60;;;8.15;;
66384;SDS011;53426;55.872;37.462;2023-02-11T00:27:17;14.90;;;7.45;;
66384;SDS011;53426;55.872;37.462;2023-02-11T00:29:50;15.75;;;8.48;;
66384;SDS011;53426;55.872;37.462;2023-02-11T00:32:24;13.40;;;8.10;;
66384;SDS011;53426;55.872;37.462;2023-02-11T00:34:58;20.35;;;9.05;;
66384;SDS011;53426;55.872;37.462;2023-02-11T00:37:28;12.02;;;7.32;;
66384;SDS011;53426;55.872;37.462;2023-02-11T00:40:02;9.38;;;6.32;;
66384;SDS011;53426;55.872;37.462;2023-02-11T00:42:33;16.23;;;7.68;;
66384;SDS011;53426;55.872;37.462;2023-02-11T00:45:04;13.73;;;7.65;;
66384;SDS011;53426;55.872;37.462;2023-02-11T00:47:36;14.60;;;7.05;;
66384;SDS011;53426;55.872;37.462;2023-02-11T00:50:05;12.18;;;7.55;;
66384;SDS011;53426;55.872;37.462;2023-02-11T00:52:37;9.65;;;6.13;;
66384;SDS011;53426;55.872;37.462;2023-02-11T00:55:08;14.63;;;8.50;;
66384;SDS011;53426;55.872;37.462;2023-02-11T00:57:38;13.00;;;7.18;;
66384;SDS011;53426;55.872;37.462;2023-02-11T01:00:09;15.85;;;7.82;;
66384;SDS011;53426;55.872;37.462;2023-02-11T01:02:41;20.58;;;8.48;;
66384;SDS011;53426;55.872;37.462;2023-02-11T01:05:09;8.13;;;5.28;;
66384;SDS011;53426;55.872;37.462;2023-02-11T01:07:41;13.65;;;7.82;;
66384;SDS011;53426;55.872;37.462;2023-02-11T01:10:13;12.43;;;7.10;;
66384;SDS011;53426;55.872;37.462;2023-02-11T01:12:44;18.27;;;6.72;;
66384;SDS011;53426;55.872;37.462;2023-02-11T01:15:17;10.68;;;6.53;;
66384;SDS011;53426;55.872;37.462;2023-02-11T01:17:48;10.80;;;5.22;;
66384;SDS011;53426;55.872;37.462;2023-02-11T01:20:21;12.88;;;6.95;;
66384;SDS011;53426;55.872;37.462;2023-02-11T01:22:51;12.45;;;7.40;;
66384;SDS011;53426;55.872;37.462;2023-02-11T01:25:24;14.95;;;6.68;;
66384;SDS011;53426;55.872;37.462;2023-02-11T01:27:55;15.65;;;6.95;;
66384;SDS011;53426;55.872;37.462;2023-02-11T01:30:29;11.18;;;6.25;;
66384;SDS011;53426;55.872;37.462;2023-02-11T01:32:59;14.77;;;7.53;;
66384;SDS011;53426;55.872;37.462;2023-02-11T01:35:33;14.73;;;6.32;;
66384;SDS011;53426;55.872;37.462;2023-02-11T01:38:06;14.73;;;6.38;;
66384;SDS011;53426;55.872;37.462;2023-02-11T01:40:58;13.35;;;5.85;;
66384;SDS011;53426;55.872;37.462;2023-02-11T01:43:36;18.30;;;6.70;;
66384;SDS011;53426;55.872;37.462;2023-02-11T01:46:17;11.68;;;5.88;;
66384;SDS011;53426;55.872;37.462;2023-02-11T01:48:49;12.85;;;5.55;;
66384;SDS011;53426;55.872;37.462;2023-02-11T01:51:29;12.05;;;5.90;;
66384;SDS011;53426;55.872;37.462;2023-02-11T01:54:06;9.80;;;5.60;;
66384;SDS011;53426;55.872;37.462;2023-02-11T01:56:55;13.07;;;5.13;;
66384;SDS011;53426;55.872;37.462;2023-02-11T01:59:45;13.90;;;5.88;;
66384;SDS011;53426;55.872;37.462;2023-02-11T02:02:29;7.78;;;4.70;;
66384;SDS011;53426;55.872;37.462;2023-02-11T02:10:49;7.25;;;3.53;;
66384;SDS011;53426;55.872;37.462;2023-02-11T02:13:26;9.25;;;4.55;;
66384;SDS011;53426;55.872;37.462;2023-02-11T02:16:18;10.57;;;5.05;;
66384;SDS011;53426;55.872;37.462;2023-02-11T02:36:14;8.93;;;4.05;;
66384;SDS011;53426;55.872;37.462;2023-02-11T02:39:49;7.68;;;4.22;;
66384;SDS011;53426;55.872;37.462;2023-02-11T02:41:58;7.97;;;3.45;;
66384;SDS011;53426;55.872;37.462;2023-02-11T02:44:31;14.15;;;4.10;;
66384;SDS011;53426;55.872;37.462;2023-02-11T02:47:03;7.05;;;4.20;;
66384;SDS011;53426;55.872;37.462;2023-02-11T02:49:35;9.48;;;4.82;;
66384;SDS011;53426;55.872;37.462;2023-02-11T03:10:46;10.05;;;4.07;;
66384;SDS011;53426;55.872;37.462;2023-02-11T03:13:19;11.27;;;4.40;;
66384;SDS011;53426;55.872;37.462;2023-02-11T03:15:56;11.15;;;3.97;;
66384;SDS011;53426;55.872;37.462;2023-02-11T03:18:39;11.82;;;4.00;;
66384;SDS011;53426;55.872;37.462;2023-02-11T03:21:10;9.70;;;4.70;;
66384;SDS011;53426;55.872;37.462;2023-02-11T03:23:52;9.32;;;4.07;;
66384;SDS011;53426;55.872;37.462;2023-02-11T03:26:26;9.27;;;4.20;;
66384;SDS011;53426;55.872;37.462;2023-02-11T03:29:03;8.52;;;4.80;;
66384;SDS011;53426;55.872;37.462;2023-02-11T03:32:08;5.82;;;3.67;;
66384;SDS011;53426;55.872;37.462;2023-02-11T03:34:45;7.20;;;4.07;;
66384;SDS011;53426;55.872;37.462;2023-02-11T03:37:47;14.30;;;5.00;;
66384;SDS011;53426;55.872;37.462;2023-02-11T03:40:41;8.57;;;4.03;;
66384;SDS011;53426;55.872;37.462;2023-02-11T03:43:22;8.48;;;4.40;;
66384;SDS011;53426;55.872;37.462;2023-02-11T03:46:12;7.57;;;3.88;;
66384;SDS011;53426;55.872;37.462;2023-02-11T03:48:49;7.50;;;3.63;;
66384;SDS011;53426;55.872;37.462;2023-02-11T03:51:23;8.35;;;4.20;;
66384;SDS011;53426;55.872;37.462;2023-02-11T03:53:55;8.25;;;4.20;;
66384;SDS011;53426;55.872;37.462;2023-02-11T03:56:29;10.57;;;4.18;;
66384;SDS011;53426;55.872;37.462;2023-02-11T03:59:05;7.72;;;3.20;;
66384;SDS011;53426;55.872;37.462;2023-02-11T04:01:36;4.80;;;3.03;;
66384;SDS011;53426;55.872;37.462;2023-02-11T04:04:08;9.43;;;3.63;;
66384;SDS011;53426;55.872;37.462;2023-02-11T04:06:40;6.20;;;3.47;;
66384;SDS011;53426;55.872;37.462;2023-02-11T04:09:15;8.38;;;3.45;;
66384;SDS011;53426;55.872;37.462;2023-02-11T04:11:46;9.65;;;3.13;;
66384;SDS011;53426;55.872;37.462;2023-02-11T04:14:19;6.82;;;3.47;;
66384;SDS011;53426;55.872;37.462;2023-02-11T04:16:52;9.73;;;3.70;;
66384;SDS011;53426;55.872;37.462;2023-02-11T04:19:23;5.65;;;3.13;;
66384;SDS011;53426;55.872;37.462;2023-02-11T04:21:55;3.10;;;2.80;;
66384;SDS011;53426;55.872;37.462;2023-02-11T04:24:27;5.90;;;2.92;;
66384;SDS011;53426;55.872;37.462;2023-02-11T04:26:59;7.22;;;3.40;;
66384;SDS011;53426;55.872;37.462;2023-02-11T04:29:31;7.47;;;4.18;;
66384;SDS011;53426;55.872;37.462;2023-02-11T04:32:04;9.40;;;3.28;;
66384;SDS011;53426;55.872;37.462;2023-02-11T04:34:34;7.43;;;3.13;;
66384;SDS011;53426;55.872;37.462;2023-02-11T04:37:07;6.78;;;3.22;;
66384;SDS011;53426;55.872;37.462;2023-02-11T04:39:38;6.88;;;2.90;;
66384;SDS011;53426;55.872;37.462;2023-02-11T04:42:11;7.93;;;3.25;;
66384;SDS011;53426;55.872;37.462;2023-02-11T04:44:44;8.90;;;4.05;;
66384;SDS011;53426;55.872;37.462;2023-02-11T04:47:16;6.43;;;3.60;;
66384;SDS011;53426;55.872;37.462;2023-02-11T04:49:51;9.43;;;3.38;;
66384;SDS011;53426;55.872;37.462;2023-02-11T04:52:24;4.50;;;3.03;;
66384;SDS011;53426;55.872;37.462;2023-02-11T04:54:54;9.13;;;4.22;;
66384;SDS011;53426;55.872;37.462;2023-02-11T04:57:27;4.88;;;3.35;;
66384;SDS011;53426;55.872;37.462;2023-02-11T05:00:01;8.77;;;3.40;;
66384;SDS011;53426;55.872;37.462;2023-02-11T05:02:34;7.72;;;3.15;;
66384;SDS011;53426;55.872;37.462;2023-02-11T05:05:06;9.18;;;3.63;;
66384;SDS011;53426;55.872;37.462;2023-02-11T05:07:39;5.60;;;3.00;;
66384;SDS011;53426;55.872;37.462;2023-02-11T05:10:13;8.38;;;2.75;;
66384;SDS011;53426;55.872;37.462;2023-02-11T05:12:46;7.28;;;3.53;;
66384;SDS011;53426;55.872;37.462;2023-02-11T05:15:17;6.68;;;3.20;;
66384;SDS011;53426;55.872;37.462;2023-02-11T05:17:48;5.57;;;2.35;;
66384;SDS011;53426;55.872;37.462;2023-02-11T05:20:21;7.97;;;3.22;;
66384;SDS011;53426;55.872;37.462;2023-02-11T05:22:52;6.85;;;2.83;;
66384;SDS011;53426;55.872;37.462;2023-02-11T05:25:25;9.52;;;3.75;;
66384;SDS011;53426;55.872;37.462;2023-02-11T05:27:59;9.02;;;3.42;;
66384;SDS011;53426;55.872;37.462;2023-02-11T05:30:31;10.35;;;3.28;;
66384;SDS011;53426;55.872;37.462;2023-02-11T05:33:04;4.18;;;2.90;;
66384;SDS011;53426;55.872;37.462;2023-02-11T05:35:39;6.00;;;3.60;;
66384;SDS011;53426;55.872;37.462;2023-02-11T05:38:12;6.00;;;2.85;;
66384;SDS011;53426;55.872;37.462;2023-02-11T05:40:46;7.00;;;3.42;;
66384;SDS011;53426;55.872;37.462;2023-02-11T05:43:17;7.22;;;2.72;;
66384;SDS011;53426;55.872;37.462;2023-02-11T05:45:52;10.80;;;3.75;;
66384;SDS011;53426;55.872;37.462;2023-02-11T05:48:23;10.15;;;3.40;;
66384;SDS011;53426;55.872;37.462;2023-02-11T05:50:57;8.63;;;3.33;;
66384;SDS011;53426;55.872;37.462;2023-02-11T05:53:28;7.57;;;3.20;;
66384;SDS011;53426;55.872;37.462;2023-02-11T05:56:00;3.72;;;2.75;;
66384;SDS011;53426;55.872;37.462;2023-02-11T05:58:32;7.05;;;3.03;;
66384;SDS011;53426;55.872;37.462;2023-02-11T06:01:04;7.53;;;3.47;;
66384;SDS011;53426;55.872;37.462;2023-02-11T06:03:36;6.80;;;3.28;;
66384;SDS011;53426;55.872;37.462;2023-02-11T06:06:10;8.38;;;3.70;;
66384;SDS011;53426;55.872;37.462;2023-02-11T06:08:40;8.32;;;3.40;;
66384;SDS011;53426;55.872;37.462;2023-02-11T06:11:14;5.95;;;3.45;;
66384;SDS011;53426;55.872;37.462;2023-02-11T06:13:45;9.63;;;4.18;;
66384;SDS011;53426;55.872;37.462;2023-02-11T06:16:17;7.80;;;4.13;;
66384;SDS011;53426;55.872;37.462;2023-02-11T06:18:50;5.32;;;3.22;;
66384;SDS011;53426;55.872;37.462;2023-02-11T06:21:23;9.25;;;3.97;;
66384;SDS011;53426;55.872;37.462;2023-02-11T06:23:55;4.30;;;3.22;;
66384;SDS011;53426;55.872;37.462;2023-02-11T06:26:30;6.25;;;3.53;;
66384;SDS011;53426;55.872;37.462;2023-02-11T06:29:01;4.25;;;3.30;;
66384;SDS011;53426;55.872;37.462;2023-02-11T06:31:31;4.53;;;3.30;;
66384;SDS011;53426;55.872;37.462;2023-02-11T06:34:01;4.55;;;3.38;;
66384;SDS011;53426;55.872;37.462;2023-02-11T06:36:32;7.45;;;3.80;;
66384;SDS011;53426;55.872;37.462;2023-02-11T06:39:05;4.45;;;2.67;;
66384;SDS011;53426;55.872;37.462;2023-02-11T06:41:39;6.70;;;3.80;;
66384;SDS011;53426;55.872;37.462;2023-02-11T06:44:11;12.48;;;3.85;;
66384;SDS011;53426;55.872;37.462;2023-02-11T06:46:43;7.03;;;3.92;;
66384;SDS011;53426;55.872;37.462;2023-02-11T06:49:15;6.65;;;3.60;;
66384;SDS011;53426;55.872;37.462;2023-02-11T06:51:49;4.18;;;2.58;;
66384;SDS011;53426;55.872;37.462;2023-02-11T06:54:19;5.80;;;2.95;;
66384;SDS011;53426;55.872;37.462;2023-02-11T06:56:47;4.53;;;3.72;;
66384;SDS011;53426;55.872;37.462;2023-02-11T06:59:19;8.15;;;3.70;;
66384;SDS011;53426;55.872;37.462;2023-02-11T07:01:47;9.13;;;3.78;;
66384;SDS011;53426;55.872;37.462;2023-02-11T07:04:20;9.50;;;4.30;;
66384;SDS011;53426;55.872;37.462;2023-02-11T07:06:53;7.57;;;3.03;;
66384;SDS011;53426;55.872;37.462;2023-02-11T07:09:21;9.40;;;3.78;;
66384;SDS011;53426;55.872;37.462;2023-02-11T07:11:52;8.80;;;3.75;;
66384;SDS011;53426;55.872;37.462;2023-02-11T07:14:24;10.13;;;4.15;;
66384;SDS011;53426;55.872;37.462;2023-02-11T07:16:59;7.25;;;3.50;;
66384;SDS011;53426;55.872;37.462;2023-02-11T07:19:31;6.43;;;3.63;;
66384;SDS011;53426;55.872;37.462;2023-02-11T07:22:03;6.05;;;3.45;;
66384;SDS011;53426;55.872;37.462;2023-02-11T07:24:36;6.55;;;3.50;;
66384;SDS011;53426;55.872;37.462;2023-02-11T07:27:06;9.43;;;4.07;;
66384;SDS011;53426;55.872;37.462;2023-02-11T07:29:37;10.88;;;4.07;;
66384;SDS011;53426;55.872;37.462;2023-02-11T07:32:06;9.10;;;4.32;;
66384;SDS011;53426;55.872;37.462;2023-02-11T07:34:36;6.85;;;4.10;;
66384;SDS011;53426;55.872;37.462;2023-02-11T07:37:07;9.63;;;4.18;;
66384;SDS011;53426;55.872;37.462;2023-02-11T07:39:49;13.20;;;4.45;;
66384;SDS011;53426;55.872;37.462;2023-02-11T07:42:18;10.88;;;4.10;;
66384;SDS011;53426;55.872;37.462;2023-02-11T07:44:50;10.75;;;4.55;;
66384;SDS011;53426;55.872;37.462;2023-02-11T07:47:20;10.52;;;4.20;;
66384;SDS011;53426;55.872;37.462;2023-02-11T07:49:53;7.38;;;4.80;;
66384;SDS011;53426;55.872;37.462;2023-02-11T07:52:24;8.70;;;4.80;;
66384;SDS011;53426;55.872;37.462;2023-02-11T07:54:58;10.85;;;4.47;;
66384;SDS011;53426;55.872;37.462;2023-02-11T07:57:29;11.65;;;5.18;;
66384;SDS011;53426;55.872;37.462;2023-02-11T08:00:01;14.60;;;5.47;;
66384;SDS011;53426;55.872;37.462;2023-02-11T08:02:36;9.30;;;5.38;;
66384;SDS011;53426;55.872;37.462;2023-02-11T08:05:08;6.78;;;4.85;;
66384;SDS011;53426;55.872;37.462;2023-02-11T08:07:38;10.00;;;5.78;;
66384;SDS011;53426;55.872;37.462;2023-02-11T08:10:09;13.57;;;6.32;;
66384;SDS011;53426;55.872;37.462;2023-02-11T08:12:46;11.60;;;6.63;;
66384;SDS011;53426;55.872;37.462;2023-02-11T08:15:12;14.45;;;7.07;;
66384;SDS011;53426;55.872;37.462;2023-02-11T08:17:39;12.95;;;6.35;;
66384;SDS011;53426;55.872;37.462;2023-02-11T08:20:06;13.68;;;7.13;;
66384;SDS011;53426;55.872;37.462;2023-02-11T08:22:32;12.98;;;6.57;;
66384;SDS011;53426;55.872;37.462;2023-02-11T08:27:38;11.68;;;6.30;;
66384;SDS011;53426;55.872;37.462;2023-02-11T08:30:04;12.77;;;6.45;;
66384;SDS011;53426;55.872;37.462;2023-02-11T08:32:33;10.32;;;7.00;;
66384;SDS011;53426;55.872;37.462;2023-02-11T08:34:59;18.02;;;7.22;;
66384;SDS011;53426;55.872;37.462;2023-02-11T08:37:25;13.15;;;6.50;;
66384;SDS011;53426;55.872;37.462;2023-02-11T08:39:51;10.30;;;6.07;;
66384;SDS011;53426;55.872;37.462;2023-02-11T08:42:17;8.05;;;5.55;;
66384;SDS011;53426;55.872;37.462;2023-02-11T08:44:44;10.38;;;6.50;;
66384;SDS011;53426;55.872;37.462;2023-02-11T08:47:11;13.27;;;7.68;;
66384;SDS011;53426;55.872;37.462;2023-02-11T08:49:38;12.93;;;6.28;;
66384;SDS011;53426;55.872;37.462;2023-02-11T08:52:07;11.05;;;5.93;;
66384;SDS011;53426;55.872;37.462;2023-02-11T08:54:33;9.65;;;5.72;;
66384;SDS011;53426;55.872;37.462;2023-02-11T08:56:59;10.23;;;6.43;;
66384;SDS011;53426;55.872;37.462;2023-02-11T08:59:29;11.20;;;5.65;;
66384;SDS011;53426;55.872;37.462;2023-02-11T09:01:55;12.43;;;6.53;;
66384;SDS011;53426;55.872;37.462;2023-02-11T09:04:21;14.77;;;7.22;;
66384;SDS011;53426;55.872;37.462;2023-02-11T09:06:47;8.93;;;5.72;;
66384;SDS011;53426;55.872;37.462;2023-02-11T09:12:09;10.02;;;6.07;;
66384;SDS011;53426;55.872;37.462;2023-02-11T09:14:35;10.50;;;6.28;;
66384;SDS011;53426;55.872;37.462;2023-02-11T09:17:01;13.68;;;6.05;;
66384;SDS011;53426;55.872;37.462;2023-02-11T09:19:27;11.68;;;6.25;;
66384;SDS011;53426;55.872;37.462;2023-02-11T09:21:56;9.57;;;5.10;;
66384;SDS011;53426;55.872;37.462;2023-02-11T09:24:21;17.60;;;5.60;;
66384;SDS011;53426;55.872;37.462;2023-02-11T09:26:50;8.10;;;6.28;;
66384;SDS011;53426;55.872;37.462;2023-02-11T09:29:16;7.05;;;4.95;;
66384;SDS011;53426;55.872;37.462;2023-02-11T09:31:42;8.77;;;4.32;;
66384;SDS011;53426;55.872;37.462;2023-02-11T09:34:09;7.25;;;5.28;;
66384;SDS011;53426;55.872;37.462;2023-02-11T09:36:36;9.88;;;5.30;;
66384;SDS011;53426;55.872;37.462;2023-02-11T09:39:08;13.02;;;5.72;;
66384;SDS011;53426;55.872;37.462;2023-02-11T09:44:35;11.10;;;5.57;;
66384;SDS011;53426;55.872;37.462;2023-02-11T09:49:51;9.38;;;5.30;;
66384;SDS011;53426;55.872;37.462;2023-02-11T09:54:55;13.02;;;5.57;;
66384;SDS011;53426;55.872;37.462;2023-02-11T09:57:34;7.68;;;4.45;;
66384;SDS011;53426;55.872;37.462;2023-02-11T10:00:01;8.38;;;4.88;;
66384;SDS011;53426;55.872;37.462;2023-02-11T10:09:07;10.82;;;5.97;;
66384;SDS011;53426;55.872;37.462;2023-02-11T10:17:24;8.95;;;5.15;;
66384;SDS011;53426;55.872;37.462;2023-02-11T10:22:54;14.38;;;6.68;;
66384;SDS011;53426;55.872;37.462;2023-02-11T10:25:24;12.50;;;5.88;;
66384;SDS011;53426;55.872;37.462;2023-02-11T10:27:54;10.07;;;5.00;;
66384;SDS011;53426;55.872;37.462;2023-02-11T10:32:55;10.88;;;6.05;;
66384;SDS011;53426;55.872;37.462;2023-02-11T10:35:26;11.68;;;6.28;;
66384;SDS011;53426;55.872;37.462;2023-02-11T10:37:52;18.65;;;6.18;;
66384;SDS011;53426;55.872;37.462;2023-02-11T10:40:24;11.63;;;5.93;;
66384;SDS011;53426;55.872;37.462;2023-02-11T10:42:54;8.32;;;5.82;;
66384;SDS011;53426;55.872;37.462;2023-02-11T10:53:37;13.70;;;6.93;;
66384;SDS011;53426;55.872;37.462;2023-02-11T10:56:04;8.23;;;5.50;;
66384;SDS011;53426;55.872;37.462;2023-02-11T10:58:43;7.32;;;4.85;;
66384;SDS011;53426;55.872;37.462;2023-02-11T11:01:11;12.57;;;7.10;;
66384;SDS011;53426;55.872;37.462;2023-02-11T11:03:39;12.63;;;5.85;;
66384;SDS011;53426;55.872;37.462;2023-02-11T11:06:12;19.55;;;8.38;;
66384;SDS011;53426;55.872;37.462;2023-02-11T11:08:43;11.15;;;6.88;;
66384;SDS011;53426;55.872;37.462;2023-02-11T11:11:11;13.20;;;6.68;;
66384;SDS011;53426;55.872;37.462;2023-02-11T11:18:48;7.07;;;5.10;;
66384;SDS011;53426;55.872;37.462;2023-02-11T11:23:58;13.30;;;6.63;;
66384;SDS011;53426;55.872;37.462;2023-02-11T11:26:27;12.57;;;5.88;;
66384;SDS011;53426;55.872;37.462;2023-02-11T11:29:12;14.57;;;8.10;;
66384;SDS011;53426;55.872;37.462;2023-02-11T11:31:53;13.93;;;6.80;;
66384;SDS011;53426;55.872;37.462;2023-02-11T11:37:08;15.27;;;6.60;;
66384;SDS011;53426;55.872;37.462;2023-02-11T11:43:05;13.02;;;7.25;;
66384;SDS011;53426;55.872;37.462;2023-02-11T11:49:34;12.88;;;5.65;;
66384;SDS011;53426;55.872;37.462;2023-02-11T11:52:34;15.75;;;6.10;;
66384;SDS011;53426;55.872;37.462;2023-02-11T11:57:51;11.77;;;6.80;;
66384;SDS011;53426;55.872;37.462;2023-02-11T12:00:20;10.63;;;6.63;;
66384;SDS011;53426;55.872;37.462;2023-02-11T12:03:03;16.98;;;7.38;;
66384;SDS011;53426;55.872;37.462;2023-02-11T12:09:01;11.57;;;5.83;;
66384;SDS011;53426;55.872;37.462;2023-02-11T12:17:54;15.60;;;7.90;;
66384;SDS011;53426;55.872;37.462;2023-02-11T12:23:57;13.63;;;7.50;;
66384;SDS011;53426;55.872;37.462;2023-02-11T12:26:35;11.32;;;7.18;;
66384;SDS011;53426;55.872;37.462;2023-02-11T12:40:02;12.48;;;6.00;;
66384;SDS011;53426;55.872;37.462;2023-02-11T12:54:23;12.23;;;5.90;;
66384;SDS011;53426;55.872;37.462;2023-02-11T12:57:14;14.43;;;6.88;;
66384;SDS011;53426;55.872;37.462;2023-02-11T13:02:47;10.68;;;6.47;;
66384;SDS011;53426;55.872;37.462;2023-02-11T13:05:36;17.63;;;8.88;;
66384;SDS011;53426;55.872;37.462;2023-02-11T13:08:10;10.60;;;5.55;;
66384;SDS011;53426;55.872;37.462;2023-02-11T13:11:00;22.52;;;7.60;;
66384;SDS011;53426;55.872;37.462;2023-02-11T13:13:41;18.20;;;7.25;;
66384;SDS011;53426;55.872;37.462;2023-02-11T13:16:32;16.40;;;7.13;;
66384;SDS011;53426;55.872;37.462;2023-02-11T13:26:39;13.40;;;6.57;;
66384;SDS011;53426;55.872;37.462;2023-02-11T13:32:24;15.38;;;8.65;;
66384;SDS011;53426;55.872;37.462;2023-02-11T13:42:56;22.30;;;9.38;;
66384;SDS011;53426;55.872;37.462;2023-02-11T13:48:24;19.05;;;9.70;;
66384;SDS011;53426;55.872;37.462;2023-02-11T13:51:05;20.50;;;8.98;;
66384;SDS011;53426;55.872;37.462;2023-02-11T13:53:45;12.35;;;6.25;;
66384;SDS011;53426;55.872;37.462;2023-02-11T13:56:22;15.23;;;7.57;;
66384;SDS011;53426;55.872;37.462;2023-02-11T13:58:54;13.27;;;6.95;;
66384;SDS011;53426;55.872;37.462;2023-02-11T14:13:36;14.85;;;7.93;;
66384;SDS011;53426;55.872;37.462;2023-02-11T14:16:29;21.48;;;10.05;;
66384;SDS011;53426;55.872;37.462;2023-02-11T14:21:42;18.65;;;8.38;;
66384;SDS011;53426;55.872;37.462;2023-02-11T14:32:07;21.75;;;9.73;;
66384;SDS011;53426;55.872;37.462;2023-02-11T14:38:01;12.25;;;7.18;;
66384;SDS011;53426;55.872;37.462;2023-02-11T14:43:25;18.40;;;8.40;;
66384;SDS011;53426;55.872;37.462;2023-02-11T14:49:00;22.23;;;10.50;;
66384;SDS011;53426;55.872;37.462;2023-02-11T14:51:33;23.55;;;11.25;;
66384;SDS011;53426;55.872;37.462;2023-02-11T14:54:16;18.33;;;9.57;;
66384;SDS011;53426;55.872;37.462;2023-02-11T14:56:47;30.15;;;8.05;;
66384;SDS011;53426;55.872;37.462;2023-02-11T14:59:37;21.13;;;9.43;;
66384;SDS011;53426;55.872;37.462;2023-02-11T15:02:14;21.25;;;7.75;;
66384;SDS011;53426;55.872;37.462;2023-02-11T15:04:46;27.58;;;9.13;;
66384;SDS011;53426;55.872;37.462;2023-02-11T15:07:12;10.35;;;5.53;;
66384;SDS011;53426;55.872;37.462;2023-02-11T15:09:40;19.73;;;8.30;;
66384;SDS011;53426;55.872;37.462;2023-02-11T15:12:16;22.25;;;9.75;;
66384;SDS011;53426;55.872;37.462;2023-02-11T15:14:48;15.93;;;8.32;;
66384;SDS011;53426;55.872;37.462;2023-02-11T15:17:27;14.38;;;7.78;;
66384;SDS011;53426;55.872;37.462;2023-02-11T15:19:57;20.13;;;7.57;;
66384;SDS011;53426;55.872;37.462;2023-02-11T15:22:29;21.10;;;8.85;;
66384;SDS011;53426;55.872;37.462;2023-02-11T15:27:42;22.05;;;9.25;;
66384;SDS011;53426;55.872;37.462;2023-02-11T15:32:50;16.85;;;8.65;;
66384;SDS011;53426;55.872;37.462;2023-02-11T15:35:37;8.82;;;6.00;;
66384;SDS011;53426;55.872;37.462;2023-02-11T15:38:05;17.15;;;9.88;;
66384;SDS011;53426;55.872;37.462;2023-02-11T15:40:33;16.02;;;9.57;;
66384;SDS011;53426;55.872;37.462;2023-02-11T15:45:30;20.70;;;10.40;;
66384;SDS011;53426;55.872;37.462;2023-02-11T15:50:55;23.33;;;10.73;;
66384;SDS011;53426;55.872;37.462;2023-02-11T15:56:19;21.73;;;9.55;;
66384;SDS011;53426;55.872;37.462;2023-02-11T15:58:54;14.48;;;8.00;;
66384;SDS011;53426;55.872;37.462;2023-02-11T16:01:31;16.25;;;7.00;;
66384;SDS011;53426;55.872;37.462;2023-02-11T16:03:58;27.58;;;10.60;;
66384;SDS011;53426;55.872;37.462;2023-02-11T16:06:35;16.90;;;8.32;;
66384;SDS011;53426;55.872;37.462;2023-02-11T16:09:21;24.13;;;9.88;;
66384;SDS011;53426;55.872;37.462;2023-02-11T16:17:07;18.38;;;8.48;;
66384;SDS011;53426;55.872;37.462;2023-02-11T16:19:41;22.77;;;10.18;;
66384;SDS011;53426;55.872;37.462;2023-02-11T16:22:09;13.55;;;8.68;;
66384;SDS011;53426;55.872;37.462;2023-02-11T16:24:41;20.42;;;6.00;;
66384;SDS011;53426;55.872;37.462;2023-02-11T16:30:36;13.82;;;7.65;;
66384;SDS011;53426;55.872;37.462;2023-02-11T16:33:09;14.32;;;6.40;;
66384;SDS011;53426;55.872;37.462;2023-02-11T16:35:38;15.63;;;6.85;;
66384;SDS011;53426;55.872;37.462;2023-02-11T16:38:05;26.00;;;9.30;;
66384;SDS011;53426;55.872;37.462;2023-02-11T16:40:30;18.80;;;8.63;;
66384;SDS011;53426;55.872;37.462;2023-02-11T16:42:56;16.35;;;8.13;;
66384;SDS011;53426;55.872;37.462;2023-02-11T16:45:25;19.00;;;9.07;;
66384;SDS011;53426;55.872;37.462;2023-02-11T16:47:51;20.13;;;7.70;;
66384;SDS011;53426;55.872;37.462;2023-02-11T16:50:22;17.88;;;10.18;;
66384;SDS011;53426;55.872;37.462;2023-02-11T16:52:51;12.93;;;7.13;;
66384;SDS011;53426;55.872;37.462;2023-02-11T16:55:17;18.20;;;7.32;;
66384;SDS011;53426;55.872;37.462;2023-02-11T16:57:49;16.17;;;7.82;;
66384;SDS011;53426;55.872;37.462;2023-02-11T17:00:16;14.23;;;8.30;;
66384;SDS011;53426;55.872;37.462;2023-02-11T17:02:42;16.20;;;8.57;;
66384;SDS011;53426;55.872;37.462;2023-02-11T17:05:14;17.50;;;8.82;;
66384;SDS011;53426;55.872;37.462;2023-02-11T17:07:44;17.15;;;8.68;;
66384;SDS011;53426;55.872;37.462;2023-02-11T17:10:14;21.25;;;8.23;;
66384;SDS011;53426;55.872;37.462;2023-02-11T17:12:41;14.80;;;6.97;;
66384;SDS011;53426;55.872;37.462;2023-02-11T17:15:07;16.55;;;6.47;;
66384;SDS011;53426;55.872;37.462;2023-02-11T17:17:34;22.02;;;9.30;;
66384;SDS011;53426;55.872;37.462;2023-02-11T17:20:01;15.88;;;8.52;;
66384;SDS011;53426;55.872;37.462;2023-02-11T17:25:22;17.20;;;8.85;;
66384;SDS011;53426;55.872;37.462;2023-02-11T17:27:58;11.15;;;7.68;;
66384;SDS011;53426;55.872;37.462;2023-02-11T17:30:27;17.27;;;8.73;;
66384;SDS011;53426;55.872;37.462;2023-02-11T17:32:55;12.02;;;6.95;;
66384;SDS011;53426;55.872;37.462;2023-02-11T17:35:25;17.48;;;8.25;;
66384;SDS011;53426;55.872;37.462;2023-02-11T17:37:56;16.08;;;8.00;;
66384;SDS011;53426;55.872;37.462;2023-02-11T17:40:26;14.02;;;8.63;;
66384;SDS011;53426;55.872;37.462;2023-02-11T17:42:52;16.08;;;7.75;;
66384;SDS011;53426;55.872;37.462;2023-02-11T17:45:27;17.17;;;9.55;;
66384;SDS011;53426;55.872;37.462;2023-02-11T17:50:42;11.50;;;7.90;;
66384;SDS011;53426;55.872;37.462;2023-02-11T17:53:08;19.45;;;9.23;;
66384;SDS011;53426;55.872;37.462;2023-02-11T17:55:38;12.80;;;8.13;;
66384;SDS011;53426;55.872;37.462;2023-02-11T17:58:04;20.02;;;9.02;;
66384;SDS011;53426;55.872;37.462;2023-02-11T18:00:35;24.85;;;9.30;;
66384;SDS011;53426;55.872;37.462;2023-02-11T18:03:08;8.88;;;6.78;;
66384;SDS011;53426;55.872;37.462;2023-02-11T18:05:35;17.88;;;8.40;;
66384;SDS011;53426;55.872;37.462;2023-02-11T18:08:02;19.85;;;8.10;;
66384;SDS011;53426;55.872;37.462;2023-02-11T18:10:28;15.13;;;7.53;;
66384;SDS011;53426;55.872;37.462;2023-02-11T18:12:55;12.05;;;6.10;;
66384;SDS011;53426;55.872;37.462;2023-02-11T18:15:21;21.02;;;6.97;;
66384;SDS011;53426;55.872;37.462;2023-02-11T18:17:55;14.05;;;7.32;;
66384;SDS011;53426;55.872;37.462;2023-02-11T18:20:21;13.20;;;7.72;;
66384;SDS011;53426;55.872;37.462;2023-02-11T18:22:50;20.15;;;9.02;;
66384;SDS011;53426;55.872;37.462;2023-02-11T18:25:16;15.25;;;7.38;;
66384;SDS011;53426;55.872;37.462;2023-02-11T18:27:43;13.82;;;7.50;;
66384;SDS011;53426;55.872;37.462;2023-02-11T18:30:16;11.95;;;7.22;;
66384;SDS011;53426;55.872;37.462;2023-02-11T18:32:43;18.35;;;8.25;;
66384;SDS011;53426;55.872;37.462;2023-02-11T18:35:12;13.00;;;6.60;;
66384;SDS011;53426;55.872;37.462;2023-02-11T18:37:40;11.20;;;6.45;;
66384;SDS011;53426;55.872;37.462;2023-02-11T18:40:07;18.45;;;7.68;;